TimeMDT,TemperatureF,Dew PointF,Humidity,Sea Level PressureIn,VisibilityMPH,Wind Direction,Wind SpeedMPH,Gust SpeedMPH,PrecipitationIn,Events,Conditions,WindDirDegrees,DateUTC
12:15 AM,53.6,19.4,26,30.25,10.0,Calm,Calm,-,N/A,,Clear,0,2013-05-26 06:15:00
12:35 AM,51.8,19.4,28,30.25,10.0,SW,5.8,-,N/A,,Clear,230,2013-05-26 06:35:00
12:55 AM,51.8,19.4,28,30.25,10.0,Calm,Calm,-,N/A,,Clear,0,2013-05-26 06:55:00
1:15 AM,51.8,19.4,28,30.25,10.0,East,3.5,-,N/A,,Clear,100,2013-05-26 07:15:00
1:35 AM,50.0,17.6,28,30.26,10.0,South,5.8,-,N/A,,Clear,180,2013-05-26 07:35:00
1:55 AM,50.0,17.6,28,30.26,10.0,SE,8.1,-,N/A,,Clear,130,2013-05-26 07:55:00
2:15 AM,50.0,17.6,28,30.26,10.0,Calm,Calm,-,N/A,,Clear,0,2013-05-26 08:15:00
2:35 AM,48.2,15.8,27,30.26,10.0,NNE,3.5,-,N/A,,Clear,30,2013-05-26 08:35:00
2:55 AM,50.0,12.2,22,30.26,10.0,Calm,Calm,-,N/A,,Clear,0,2013-05-26 08:55:00
3:15 AM,50.0,12.2,22,30.26,10.0,SSE,3.5,-,N/A,,Clear,150,2013-05-26 09:15:00
3:35 AM,50.0,12.2,22,30.26,10.0,SSE,5.8,-,N/A,,Clear,160,2013-05-26 09:35:00
3:55 AM,48.2,14.0,25,30.26,10.0,SE,5.8,-,N/A,,Clear,130,2013-05-26 09:55:00
4:15 AM,46.4,12.2,25,30.25,10.0,East,5.8,-,N/A,,Clear,90,2013-05-26 10:15:00
4:35 AM,46.4,12.2,25,30.25,10.0,ESE,4.6,-,N/A,,Clear,120,2013-05-26 10:35:00
4:55 AM,44.6,14.0,29,30.25,10.0,SE,5.8,-,N/A,,Clear,140,2013-05-26 10:55:00
5:15 AM,46.4,14.0,27,30.25,10.0,SE,4.6,-,N/A,,Clear,130,2013-05-26 11:15:00
5:35 AM,44.6,14.0,29,30.25,10.0,SE,3.5,-,N/A,,Clear,130,2013-05-26 11:35:00
5:55 AM,44.6,14.0,29,30.26,10.0,SE,5.8,-,N/A,,Clear,130,2013-05-26 11:55:00
6:15 AM,44.6,14.0,29,30.26,10.0,ESE,5.8,-,N/A,,Clear,110,2013-05-26 12:15:00
6:35 AM,44.6,15.8,31,30.27,10.0,SE,6.9,-,N/A,,Clear,130,2013-05-26 12:35:00
6:55 AM,44.6,17.6,34,30.27,10.0,SE,4.6,-,N/A,,Clear,130,2013-05-26 12:55:00
7:15 AM,44.6,15.8,31,30.26,10.0,ESE,4.6,-,N/A,,Clear,120,2013-05-26 13:15:00
7:35 AM,46.4,17.6,32,30.27,10.0,SE,3.5,-,N/A,,Clear,130,2013-05-26 13:35:00
7:55 AM,50.0,19.4,30,30.26,10.0,Calm,Calm,-,N/A,,Clear,0,2013-05-26 13:55:00
8:15 AM,51.8,21.2,30,30.26,10.0,Calm,Calm,-,N/A,,Clear,0,2013-05-26 14:15:00
8:35 AM,53.6,17.6,24,30.26,10.0,Calm,Calm,-,N/A,,Clear,0,2013-05-26 14:35:00
8:55 AM,57.2,17.6,21,30.27,10.0,Calm,Calm,-,N/A,,Clear,0,2013-05-26 14:55:00
9:15 AM,57.2,15.8,20,30.26,10.0,East,5.8,-,N/A,,Clear,80,2013-05-26 15:15:00
9:35 AM,59.0,14.0,17,30.26,10.0,ENE,3.5,-,N/A,,Clear,60,2013-05-26 15:35:00
9:55 AM,60.8,14.0,16,30.25,10.0,East,8.1,-,N/A,,Clear,100,2013-05-26 15:55:00
10:15 AM,60.8,12.2,15,30.25,10.0,East,8.1,19.6,N/A,,Clear,100,2013-05-26 16:15:00
10:35 AM,60.8,12.2,15,30.24,10.0,SE,9.2,20.7,N/A,,Clear,130,2013-05-26 16:35:00
10:55 AM,62.6,12.2,14,30.24,10.0,ESE,9.2,-,N/A,,Clear,120,2013-05-26 16:55:00
11:15 AM,60.8,12.2,15,30.24,10.0,ESE,5.8,17.3,N/A,,Clear,120,2013-05-26 17:15:00
11:35 AM,62.6,14.0,15,30.24,10.0,SE,11.5,20.7,N/A,,Clear,140,2013-05-26 17:35:00
11:55 AM,62.6,12.2,14,30.23,10.0,ESE,11.5,16.1,N/A,,Clear,120,2013-05-26 17:55:00
12:15 PM,62.6,14.0,15,30.23,10.0,ESE,4.6,-,N/A,,Clear,110,2013-05-26 18:15:00
12:35 PM,64.4,14.0,14,30.22,10.0,South,11.5,20.7,N/A,,Clear,170,2013-05-26 18:35:00
12:55 PM,62.6,14.0,15,30.22,10.0,ESE,16.1,21.9,N/A,,Clear,120,2013-05-26 18:55:00
1:15 PM,62.6,14.0,15,30.21,10.0,South,12.7,17.3,N/A,,Clear,170,2013-05-26 19:15:00
1:35 PM,64.4,15.8,15,30.22,10.0,SSE,10.4,-,N/A,,Clear,150,2013-05-26 19:35:00
1:55 PM,64.4,14.0,14,30.22,10.0,SSE,10.4,19.6,N/A,,Clear,150,2013-05-26 19:55:00
2:15 PM,64.4,14.0,14,30.21,10.0,SSE,13.8,21.9,N/A,,Clear,150,2013-05-26 20:15:00
2:35 PM,64.4,14.0,14,30.21,10.0,ESE,8.1,13.8,N/A,,Clear,120,2013-05-26 20:35:00
2:55 PM,64.4,14.0,14,30.21,10.0,SE,13.8,27.6,N/A,,Clear,140,2013-05-26 20:55:00
3:15 PM,64.4,12.2,13,30.21,10.0,SE,8.1,24.2,N/A,,Clear,130,2013-05-26 21:15:00
3:35 PM,64.4,12.2,13,30.20,10.0,SSE,16.1,23.0,N/A,,Clear,150,2013-05-26 21:35:00
3:55 PM,64.4,12.2,13,30.19,10.0,SE,15.0,20.7,N/A,,Clear,130,2013-05-26 21:55:00
4:15 PM,66.2,12.2,12,30.19,10.0,SW,3.5,-,N/A,,Clear,230,2013-05-26 22:15:00
4:35 PM,66.2,10.4,11,30.19,10.0,SSW,11.5,17.3,N/A,,Clear,200,2013-05-26 22:35:00
4:55 PM,64.4,6.8,10,30.18,10.0,South,10.4,23.0,N/A,,Clear,170,2013-05-26 22:55:00
5:15 PM,66.2,8.6,11,30.19,10.0,South,6.9,18.4,N/A,,Clear,170,2013-05-26 23:15:00
5:35 PM,64.4,8.6,11,30.18,10.0,SSW,15.0,23.0,N/A,,Clear,200,2013-05-26 23:35:00
5:55 PM,64.4,10.4,12,30.19,10.0,SW,5.8,19.6,N/A,,Clear,230,2013-05-26 23:55:00
6:15 PM,64.4,12.2,13,30.18,10.0,SSW,8.1,18.4,N/A,,Clear,200,2013-05-27 00:15:00
6:35 PM,64.4,10.4,12,30.19,10.0,SSW,10.4,19.6,N/A,,Clear,210,2013-05-27 00:35:00
6:55 PM,62.6,10.4,13,30.19,10.0,SSW,11.5,18.4,N/A,,Clear,200,2013-05-27 00:55:00
7:15 PM,62.6,10.4,13,30.19,10.0,SSW,10.4,17.3,N/A,,Clear,200,2013-05-27 01:15:00
7:35 PM,62.6,10.4,13,30.19,10.0,South,9.2,-,N/A,,Clear,190,2013-05-27 01:35:00
7:55 PM,60.8,10.4,14,30.20,10.0,South,5.8,16.1,N/A,,Clear,190,2013-05-27 01:55:00
8:15 PM,60.8,10.4,14,30.20,10.0,SSW,4.6,18.4,N/A,,Clear,210,2013-05-27 02:15:00
8:35 PM,60.8,10.4,14,30.20,10.0,South,3.5,-,N/A,,Clear,180,2013-05-27 02:35:00
8:55 PM,59.0,10.4,15,30.21,10.0,South,3.5,-,N/A,,Clear,190,2013-05-27 02:55:00
9:15 PM,57.2,10.4,16,30.21,10.0,Calm,Calm,-,N/A,,Clear,0,2013-05-27 03:15:00
9:35 PM,57.2,8.6,14,30.21,10.0,Calm,Calm,-,N/A,,Clear,0,2013-05-27 03:35:00
9:55 PM,55.4,10.4,17,30.22,10.0,SSE,4.6,-,N/A,,Clear,160,2013-05-27 03:55:00
10:15 PM,55.4,12.2,18,30.22,10.0,Calm,Calm,-,N/A,,Clear,0,2013-05-27 04:15:00
10:35 PM,53.6,12.2,19,30.23,10.0,SSE,3.5,-,N/A,,Clear,150,2013-05-27 04:35:00
10:55 PM,51.8,14.0,22,30.23,10.0,East,3.5,-,N/A,,Clear,100,2013-05-27 04:55:00
11:15 PM,51.8,14.0,22,30.23,10.0,South,4.6,-,N/A,,Clear,170,2013-05-27 05:15:00
11:35 PM,50.0,14.0,24,30.22,10.0,Calm,Calm,-,N/A,,Clear,0,2013-05-27 05:35:00
11:55 PM,50.0,14.0,24,30.22,10.0,East,4.6,-,N/A,,Clear,100,2013-05-27 05:55:00